sensor_id;sensor_type;location;lat;lon;timestamp;P1;durP1;ratioP1;P2;durP2;ratioP2
8423;SDS011;4249;49.072;9.770;2022-11-14T00:01:10;21.97;;;14.23;;
8423;SDS011;4249;49.072;9.770;2022-11-14T00:03:58;29.47;;;18.63;;
8423;SDS011;4249;49.072;9.770;2022-11-14T00:06:47;32.93;;;19.50;;
8423;SDS011;4249;49.072;9.770;2022-11-14T00:09:34;30.77;;;19.53;;
8423;SDS011;4249;49.072;9.770;2022-11-14T00:12:23;30.43;;;18.97;;
8423;SDS011;4249;49.072;9.770;2022-11-14T00:15:10;32.47;;;20.20;;
8423;SDS011;4249;49.072;9.770;2022-11-14T00:17:58;34.60;;;21.33;;
8423;SDS011;4249;49.072;9.770;2022-11-14T00:20:46;31.70;;;19.97;;
8423;SDS011;4249;49.072;9.770;2022-11-14T00:23:35;33.90;;;20.43;;
8423;SDS011;4249;49.072;9.770;2022-11-14T00:26:22;31.50;;;20.93;;
8423;SDS011;4249;49.072;9.770;2022-11-14T00:29:09;34.67;;;21.37;;
8423;SDS011;4249;49.072;9.770;2022-11-14T00:31:57;40.50;;;22.17;;
8423;SDS011;4249;49.072;9.770;2022-11-14T00:34:44;58.90;;;29.83;;
8423;SDS011;4249;49.072;9.770;2022-11-14T00:37:31;39.73;;;22.90;;
8423;SDS011;4249;49.072;9.770;2022-11-14T00:40:20;32.60;;;20.83;;
8423;SDS011;4249;49.072;9.770;2022-11-14T00:43:07;29.07;;;20.03;;
8423;SDS011;4249;49.072;9.770;2022-11-14T00:45:54;34.13;;;20.63;;
8423;SDS011;4249;49.072;9.770;2022-11-14T00:48:41;29.57;;;19.40;;
8423;SDS011;4249;49.072;9.770;2022-11-14T00:51:28;30.30;;;19.67;;
8423;SDS011;4249;49.072;9.770;2022-11-14T00:54:15;27.97;;;18.60;;
8423;SDS011;4249;49.072;9.770;2022-11-14T00:57:04;29.07;;;18.63;;
8423;SDS011;4249;49.072;9.770;2022-11-14T00:59:51;30.93;;;18.30;;
8423;SDS011;4249;49.072;9.770;2022-11-14T01:02:41;30.73;;;18.70;;
8423;SDS011;4249;49.072;9.770;2022-11-14T01:05:28;28.23;;;18.00;;
8423;SDS011;4249;49.072;9.770;2022-11-14T01:08:16;27.33;;;18.60;;
8423;SDS011;4249;49.072;9.770;2022-11-14T01:11:07;26.80;;;18.43;;
8423;SDS011;4249;49.072;9.770;2022-11-14T01:13:58;26.43;;;18.67;;
8423;SDS011;4249;49.072;9.770;2022-11-14T01:16:45;32.17;;;19.27;;
8423;SDS011;4249;49.072;9.770;2022-11-14T01:19:32;26.23;;;18.30;;
8423;SDS011;4249;49.072;9.770;2022-11-14T01:22:19;29.90;;;18.23;;
8423;SDS011;4249;49.072;9.770;2022-11-14T01:25:07;25.80;;;17.83;;
8423;SDS011;4249;49.072;9.770;2022-11-14T01:27:54;21.70;;;14.53;;
8423;SDS011;4249;49.072;9.770;2022-11-14T01:30:43;19.03;;;13.40;;
8423;SDS011;4249;49.072;9.770;2022-11-14T01:33:30;18.57;;;12.57;;
8423;SDS011;4249;49.072;9.770;2022-11-14T01:36:18;16.20;;;12.30;;
8423;SDS011;4249;49.072;9.770;2022-11-14T01:39:06;19.27;;;13.37;;
8423;SDS011;4249;49.072;9.770;2022-11-14T01:41:53;20.17;;;13.07;;
8423;SDS011;4249;49.072;9.770;2022-11-14T01:44:43;15.33;;;10.83;;
8423;SDS011;4249;49.072;9.770;2022-11-14T01:47:33;18.47;;;12.77;;
8423;SDS011;4249;49.072;9.770;2022-11-14T01:50:21;17.00;;;11.63;;
8423;SDS011;4249;49.072;9.770;2022-11-14T01:53:08;16.63;;;11.87;;
8423;SDS011;4249;49.072;9.770;2022-11-14T01:55:57;16.63;;;11.87;;
8423;SDS011;4249;49.072;9.770;2022-11-14T01:58:48;19.03;;;11.47;;
8423;SDS011;4249;49.072;9.770;2022-11-14T02:01:40;14.77;;;11.63;;
8423;SDS011;4249;49.072;9.770;2022-11-14T02:04:34;16.50;;;12.13;;
8423;SDS011;4249;49.072;9.770;2022-11-14T02:07:26;16.17;;;12.03;;
8423;SDS011;4249;49.072;9.770;2022-11-14T02:10:16;15.43;;;11.67;;
8423;SDS011;4249;49.072;9.770;2022-11-14T02:13:05;16.33;;;11.73;;
8423;SDS011;4249;49.072;9.770;2022-11-14T02:15:52;17.20;;;11.83;;
8423;SDS011;4249;49.072;9.770;2022-11-14T02:18:40;17.97;;;12.07;;
8423;SDS011;4249;49.072;9.770;2022-11-14T02:21:28;14.40;;;10.80;;
8423;SDS011;4249;49.072;9.770;2022-11-14T02:24:15;16.83;;;12.17;;
8423;SDS011;4249;49.072;9.770;2022-11-14T02:27:03;16.37;;;12.13;;
8423;SDS011;4249;49.072;9.770;2022-11-14T02:29:51;17.83;;;11.70;;
8423;SDS011;4249;49.072;9.770;2022-11-14T02:32:38;15.80;;;11.97;;
8423;SDS011;4249;49.072;9.770;2022-11-14T02:35:25;16.33;;;11.60;;
8423;SDS011;4249;49.072;9.770;2022-11-14T02:38:14;19.87;;;13.83;;
8423;SDS011;4249;49.072;9.770;2022-11-14T02:41:02;24.33;;;16.53;;
8423;SDS011;4249;49.072;9.770;2022-11-14T02:43:49;27.60;;;17.30;;
8423;SDS011;4249;49.072;9.770;2022-11-14T02:46:36;26.17;;;16.60;;
8423;SDS011;4249;49.072;9.770;2022-11-14T02:49:23;21.70;;;15.27;;
8423;SDS011;4249;49.072;9.770;2022-11-14T02:52:10;20.23;;;14.03;;
8423;SDS011;4249;49.072;9.770;2022-11-14T02:54:59;22.63;;;15.83;;
8423;SDS011;4249;49.072;9.770;2022-11-14T02:57:46;24.27;;;15.03;;
8423;SDS011;4249;49.072;9.770;2022-11-14T03:00:33;24.77;;;16.80;;
8423;SDS011;4249;49.072;9.770;2022-11-14T03:03:20;24.50;;;16.53;;
8423;SDS011;4249;49.072;9.770;2022-11-14T03:06:07;24.53;;;16.30;;
8423;SDS011;4249;49.072;9.770;2022-11-14T03:08:55;24.30;;;17.17;;
8423;SDS011;4249;49.072;9.770;2022-11-14T03:11:43;22.87;;;15.37;;
8423;SDS011;4249;49.072;9.770;2022-11-14T03:14:30;25.70;;;16.67;;
8423;SDS011;4249;49.072;9.770;2022-11-14T03:17:18;22.43;;;15.17;;
8423;SDS011;4249;49.072;9.770;2022-11-14T03:20:06;24.90;;;15.63;;
8423;SDS011;4249;49.072;9.770;2022-11-14T03:22:54;23.13;;;15.80;;
8423;SDS011;4249;49.072;9.770;2022-11-14T03:25:41;22.70;;;15.00;;
8423;SDS011;4249;49.072;9.770;2022-11-14T03:28:30;22.20;;;14.77;;
8423;SDS011;4249;49.072;9.770;2022-11-14T03:31:17;21.63;;;15.47;;
8423;SDS011;4249;49.072;9.770;2022-11-14T03:34:04;21.60;;;14.77;;
8423;SDS011;4249;49.072;9.770;2022-11-14T03:36:51;23.93;;;15.43;;
8423;SDS011;4249;49.072;9.770;2022-11-14T03:39:38;24.03;;;15.17;;
8423;SDS011;4249;49.072;9.770;2022-11-14T03:42:26;19.90;;;13.40;;
8423;SDS011;4249;49.072;9.770;2022-11-14T03:45:15;23.07;;;15.30;;
8423;SDS011;4249;49.072;9.770;2022-11-14T03:48:02;26.00;;;16.30;;
8423;SDS011;4249;49.072;9.770;2022-11-14T03:50:49;25.67;;;17.23;;
8423;SDS011;4249;49.072;9.770;2022-11-14T03:53:37;22.93;;;15.13;;
8423;SDS011;4249;49.072;9.770;2022-11-14T03:56:24;21.80;;;14.53;;
8423;SDS011;4249;49.072;9.770;2022-11-14T03:59:11;21.60;;;14.70;;
8423;SDS011;4249;49.072;9.770;2022-11-14T04:01:59;22.77;;;15.10;;
8423;SDS011;4249;49.072;9.770;2022-11-14T04:04:47;26.03;;;16.60;;
8423;SDS011;4249;49.072;9.770;2022-11-14T04:07:34;23.23;;;15.87;;
8423;SDS011;4249;49.072;9.770;2022-11-14T04:10:21;28.20;;;17.60;;
8423;SDS011;4249;49.072;9.770;2022-11-14T04:13:08;26.60;;;18.03;;
8423;SDS011;4249;49.072;9.770;2022-11-14T04:15:55;23.83;;;16.80;;
8423;SDS011;4249;49.072;9.770;2022-11-14T04:18:45;24.87;;;16.67;;
8423;SDS011;4249;49.072;9.770;2022-11-14T04:21:32;24.60;;;17.13;;
8423;SDS011;4249;49.072;9.770;2022-11-14T04:24:19;21.97;;;15.13;;
8423;SDS011;4249;49.072;9.770;2022-11-14T04:27:07;28.53;;;18.83;;
8423;SDS011;4249;49.072;9.770;2022-11-14T04:29:54;27.33;;;18.33;;
8423;SDS011;4249;49.072;9.770;2022-11-14T04:32:43;29.80;;;17.63;;
8423;SDS011;4249;49.072;9.770;2022-11-14T04:35:31;24.43;;;17.03;;
8423;SDS011;4249;49.072;9.770;2022-11-14T04:38:19;24.37;;;16.33;;
8423;SDS011;4249;49.072;9.770;2022-11-14T04:41:06;25.87;;;16.23;;
8423;SDS011;4249;49.072;9.770;2022-11-14T04:43:53;20.17;;;13.80;;
8423;SDS011;4249;49.072;9.770;2022-11-14T04:46:40;23.83;;;14.93;;
8423;SDS011;4249;49.072;9.770;2022-11-14T04:49:27;23.13;;;14.97;;
8423;SDS011;4249;49.072;9.770;2022-11-14T04:52:16;21.13;;;14.23;;
8423;SDS011;4249;49.072;9.770;2022-11-14T04:55:03;20.23;;;13.63;;
8423;SDS011;4249;49.072;9.770;2022-11-14T04:57:54;23.07;;;13.57;;
8423;SDS011;4249;49.072;9.770;2022-11-14T05:00:41;18.83;;;12.80;;
8423;SDS011;4249;49.072;9.770;2022-11-14T05:03:29;21.23;;;13.60;;
8423;SDS011;4249;49.072;9.770;2022-11-14T05:06:16;21.13;;;13.07;;
8423;SDS011;4249;49.072;9.770;2022-11-14T05:09:04;21.20;;;13.30;;
8423;SDS011;4249;49.072;9.770;2022-11-14T05:11:52;19.83;;;13.13;;
8423;SDS011;4249;49.072;9.770;2022-11-14T05:14:39;19.77;;;13.73;;
8423;SDS011;4249;49.072;9.770;2022-11-14T05:17:26;19.97;;;14.17;;
8423;SDS011;4249;49.072;9.770;2022-11-14T05:20:13;20.10;;;13.03;;
8423;SDS011;4249;49.072;9.770;2022-11-14T05:23:01;21.77;;;14.47;;
8423;SDS011;4249;49.072;9.770;2022-11-14T05:25:58;21.13;;;13.37;;
8423;SDS011;4249;49.072;9.770;2022-11-14T05:28:46;20.83;;;13.60;;
8423;SDS011;4249;49.072;9.770;2022-11-14T05:31:33;20.30;;;13.30;;
8423;SDS011;4249;49.072;9.770;2022-11-14T05:34:20;20.23;;;12.80;;
8423;SDS011;4249;49.072;9.770;2022-11-14T05:37:07;19.70;;;12.47;;
8423;SDS011;4249;49.072;9.770;2022-11-14T05:39:55;19.77;;;12.07;;
8423;SDS011;4249;49.072;9.770;2022-11-14T05:42:43;18.20;;;12.13;;
8423;SDS011;4249;49.072;9.770;2022-11-14T05:45:30;18.57;;;12.37;;
8423;SDS011;4249;49.072;9.770;2022-11-14T05:48:17;19.60;;;12.73;;
8423;SDS011;4249;49.072;9.770;2022-11-14T05:51:05;19.27;;;12.67;;
8423;SDS011;4249;49.072;9.770;2022-11-14T05:53:55;19.47;;;12.57;;
8423;SDS011;4249;49.072;9.770;2022-11-14T05:56:42;19.67;;;13.33;;
8423;SDS011;4249;49.072;9.770;2022-11-14T05:59:30;20.87;;;12.90;;
8423;SDS011;4249;49.072;9.770;2022-11-14T06:02:18;22.03;;;13.60;;
8423;SDS011;4249;49.072;9.770;2022-11-14T06:05:05;21.03;;;13.47;;
8423;SDS011;4249;49.072;9.770;2022-11-14T06:07:56;20.60;;;12.30;;
8423;SDS011;4249;49.072;9.770;2022-11-14T06:10:44;23.90;;;13.87;;
8423;SDS011;4249;49.072;9.770;2022-11-14T06:13:31;21.93;;;13.27;;
8423;SDS011;4249;49.072;9.770;2022-11-14T06:16:23;22.13;;;13.57;;
8423;SDS011;4249;49.072;9.770;2022-11-14T06:19:14;22.83;;;14.70;;
8423;SDS011;4249;49.072;9.770;2022-11-14T06:22:01;21.10;;;12.93;;
8423;SDS011;4249;49.072;9.770;2022-11-14T06:24:48;22.40;;;15.03;;
8423;SDS011;4249;49.072;9.770;2022-11-14T06:27:37;25.23;;;16.23;;
8423;SDS011;4249;49.072;9.770;2022-11-14T06:30:26;22.53;;;15.27;;
8423;SDS011;4249;49.072;9.770;2022-11-14T06:33:14;22.57;;;14.30;;
8423;SDS011;4249;49.072;9.770;2022-11-14T06:36:02;21.60;;;13.53;;
8423;SDS011;4249;49.072;9.770;2022-11-14T06:38:51;22.20;;;13.87;;
8423;SDS011;4249;49.072;9.770;2022-11-14T06:41:38;24.20;;;15.53;;
8423;SDS011;4249;49.072;9.770;2022-11-14T06:44:25;22.83;;;13.73;;
8423;SDS011;4249;49.072;9.770;2022-11-14T06:47:12;24.23;;;15.07;;
8423;SDS011;4249;49.072;9.770;2022-11-14T06:49:40;23.77;;;15.60;;
8423;SDS011;4249;49.072;9.770;2022-11-14T06:52:07;28.27;;;18.23;;
8423;SDS011;4249;49.072;9.770;2022-11-14T06:54:34;24.53;;;15.13;;
8423;SDS011;4249;49.072;9.770;2022-11-14T06:57:02;24.20;;;15.47;;
8423;SDS011;4249;49.072;9.770;2022-11-14T06:59:29;25.63;;;15.80;;
8423;SDS011;4249;49.072;9.770;2022-11-14T07:01:56;26.07;;;16.10;;
8423;SDS011;4249;49.072;9.770;2022-11-14T07:04:23;19.77;;;14.67;;
8423;SDS011;4249;49.072;9.770;2022-11-14T07:06:51;22.03;;;15.50;;
8423;SDS011;4249;49.072;9.770;2022-11-14T07:09:18;22.50;;;15.50;;
8423;SDS011;4249;49.072;9.770;2022-11-14T07:11:45;24.27;;;15.43;;
8423;SDS011;4249;49.072;9.770;2022-11-14T07:14:13;22.90;;;14.73;;
8423;SDS011;4249;49.072;9.770;2022-11-14T07:16:39;21.03;;;13.87;;
8423;SDS011;4249;49.072;9.770;2022-11-14T07:19:06;22.13;;;14.83;;
8423;SDS011;4249;49.072;9.770;2022-11-14T07:21:34;20.70;;;14.73;;
8423;SDS011;4249;49.072;9.770;2022-11-14T07:24:04;20.17;;;13.80;;
8423;SDS011;4249;49.072;9.770;2022-11-14T07:26:33;53.10;;;31.10;;
8423;SDS011;4249;49.072;9.770;2022-11-14T07:29:00;27.47;;;18.20;;
8423;SDS011;4249;49.072;9.770;2022-11-14T07:31:27;26.07;;;17.33;;
8423;SDS011;4249;49.072;9.770;2022-11-14T07:33:53;25.90;;;16.20;;
8423;SDS011;4249;49.072;9.770;2022-11-14T07:36:20;26.93;;;17.63;;
8423;SDS011;4249;49.072;9.770;2022-11-14T07:38:49;27.17;;;17.20;;
8423;SDS011;4249;49.072;9.770;2022-11-14T07:41:17;23.70;;;16.70;;
8423;SDS011;4249;49.072;9.770;2022-11-14T07:43:46;25.27;;;15.60;;
8423;SDS011;4249;49.072;9.770;2022-11-14T07:46:13;24.90;;;16.33;;
8423;SDS011;4249;49.072;9.770;2022-11-14T07:48:42;28.33;;;17.97;;
8423;SDS011;4249;49.072;9.770;2022-11-14T07:51:12;26.27;;;17.60;;
8423;SDS011;4249;49.072;9.770;2022-11-14T07:53:40;25.60;;;17.23;;
8423;SDS011;4249;49.072;9.770;2022-11-14T07:56:07;26.07;;;16.97;;
8423;SDS011;4249;49.072;9.770;2022-11-14T07:58:36;25.13;;;16.03;;
8423;SDS011;4249;49.072;9.770;2022-11-14T08:01:05;24.67;;;15.37;;
8423;SDS011;4249;49.072;9.770;2022-11-14T08:03:33;24.90;;;17.27;;
8423;SDS011;4249;49.072;9.770;2022-11-14T08:06:01;27.47;;;18.17;;
8423;SDS011;4249;49.072;9.770;2022-11-14T08:08:29;26.47;;;15.90;;
8423;SDS011;4249;49.072;9.770;2022-11-14T08:10:56;26.50;;;16.50;;
8423;SDS011;4249;49.072;9.770;2022-11-14T08:13:23;23.10;;;16.50;;
8423;SDS011;4249;49.072;9.770;2022-11-14T08:15:54;29.17;;;18.37;;
8423;SDS011;4249;49.072;9.770;2022-11-14T08:18:21;27.43;;;18.87;;
8423;SDS011;4249;49.072;9.770;2022-11-14T08:20:49;26.90;;;18.13;;
8423;SDS011;4249;49.072;9.770;2022-11-14T08:23:16;24.73;;;16.50;;
8423;SDS011;4249;49.072;9.770;2022-11-14T08:25:43;24.70;;;16.70;;
8423;SDS011;4249;49.072;9.770;2022-11-14T08:28:10;27.10;;;18.00;;
8423;SDS011;4249;49.072;9.770;2022-11-14T08:30:37;25.03;;;17.00;;
8423;SDS011;4249;49.072;9.770;2022-11-14T08:33:06;22.87;;;16.20;;
8423;SDS011;4249;49.072;9.770;2022-11-14T08:35:33;23.47;;;14.93;;
8423;SDS011;4249;49.072;9.770;2022-11-14T08:38:00;23.67;;;16.37;;
8423;SDS011;4249;49.072;9.770;2022-11-14T08:40:28;25.33;;;16.33;;
8423;SDS011;4249;49.072;9.770;2022-11-14T08:42:57;27.93;;;18.50;;
8423;SDS011;4249;49.072;9.770;2022-11-14T08:45:26;24.93;;;18.47;;
8423;SDS011;4249;49.072;9.770;2022-11-14T08:47:53;27.20;;;17.97;;
8423;SDS011;4249;49.072;9.770;2022-11-14T08:50:22;23.67;;;16.27;;
8423;SDS011;4249;49.072;9.770;2022-11-14T08:52:49;28.23;;;18.37;;
8423;SDS011;4249;49.072;9.770;2022-11-14T08:55:18;25.77;;;16.50;;
8423;SDS011;4249;49.072;9.770;2022-11-14T08:57:45;24.97;;;16.87;;
8423;SDS011;4249;49.072;9.770;2022-11-14T09:00:13;22.13;;;15.43;;
8423;SDS011;4249;49.072;9.770;2022-11-14T09:02:40;23.37;;;15.93;;
8423;SDS011;4249;49.072;9.770;2022-11-14T09:05:07;19.40;;;13.83;;
8423;SDS011;4249;49.072;9.770;2022-11-14T09:07:36;20.60;;;14.13;;
8423;SDS011;4249;49.072;9.770;2022-11-14T09:10:03;20.73;;;14.73;;
8423;SDS011;4249;49.072;9.770;2022-11-14T09:12:31;19.57;;;13.53;;
8423;SDS011;4249;49.072;9.770;2022-11-14T09:14:58;20.03;;;14.47;;
8423;SDS011;4249;49.072;9.770;2022-11-14T09:17:25;19.70;;;13.43;;
8423;SDS011;4249;49.072;9.770;2022-11-14T09:19:52;19.90;;;14.10;;
8423;SDS011;4249;49.072;9.770;2022-11-14T09:22:20;18.63;;;13.87;;
8423;SDS011;4249;49.072;9.770;2022-11-14T09:24:49;23.07;;;15.07;;
8423;SDS011;4249;49.072;9.770;2022-11-14T09:27:16;19.03;;;13.53;;
8423;SDS011;4249;49.072;9.770;2022-11-14T09:29:43;19.30;;;14.33;;
8423;SDS011;4249;49.072;9.770;2022-11-14T09:32:10;19.13;;;13.57;;
8423;SDS011;4249;49.072;9.770;2022-11-14T09:34:37;19.17;;;14.07;;
8423;SDS011;4249;49.072;9.770;2022-11-14T09:37:08;19.27;;;12.90;;
8423;SDS011;4249;49.072;9.770;2022-11-14T09:39:34;19.13;;;13.60;;
8423;SDS011;4249;49.072;9.770;2022-11-14T09:42:11;18.37;;;15.47;;
8423;SDS011;4249;49.072;9.770;2022-11-14T09:44:52;17.07;;;12.57;;
8423;SDS011;4249;49.072;9.770;2022-11-14T09:47:23;17.40;;;13.07;;
8423;SDS011;4249;49.072;9.770;2022-11-14T09:49:54;16.73;;;12.37;;
8423;SDS011;4249;49.072;9.770;2022-11-14T09:52:25;15.13;;;11.73;;
8423;SDS011;4249;49.072;9.770;2022-11-14T09:54:56;17.13;;;12.47;;
8423;SDS011;4249;49.072;9.770;2022-11-14T09:57:28;14.40;;;11.77;;
8423;SDS011;4249;49.072;9.770;2022-11-14T09:59:55;16.17;;;12.23;;
8423;SDS011;4249;49.072;9.770;2022-11-14T10:02:26;17.97;;;12.60;;
8423;SDS011;4249;49.072;9.770;2022-11-14T10:08:08;23.10;;;20.73;;
8423;SDS011;4249;49.072;9.770;2022-11-14T10:10:47;16.67;;;13.23;;
8423;SDS011;4249;49.072;9.770;2022-11-14T10:13:24;15.70;;;12.37;;
8423;SDS011;4249;49.072;9.770;2022-11-14T10:16:09;16.83;;;12.53;;
8423;SDS011;4249;49.072;9.770;2022-11-14T10:18:46;15.97;;;11.87;;
8423;SDS011;4249;49.072;9.770;2022-11-14T10:21:27;15.77;;;12.13;;
8423;SDS011;4249;49.072;9.770;2022-11-14T10:24:03;15.67;;;11.73;;
8423;SDS011;4249;49.072;9.770;2022-11-14T10:26:44;18.80;;;13.30;;
8423;SDS011;4249;49.072;9.770;2022-11-14T10:29:34;12.73;;;10.17;;
8423;SDS011;4249;49.072;9.770;2022-11-14T10:32:16;11.43;;;9.10;;
8423;SDS011;4249;49.072;9.770;2022-11-14T10:34:52;12.50;;;9.53;;
8423;SDS011;4249;49.072;9.770;2022-11-14T10:37:24;10.37;;;8.07;;
8423;SDS011;4249;49.072;9.770;2022-11-14T10:39:56;11.60;;;8.77;;
8423;SDS011;4249;49.072;9.770;2022-11-14T10:42:30;10.67;;;7.73;;
8423;SDS011;4249;49.072;9.770;2022-11-14T10:45:03;10.83;;;8.03;;
8423;SDS011;4249;49.072;9.770;2022-11-14T10:47:37;8.93;;;6.63;;
8423;SDS011;4249;49.072;9.770;2022-11-14T10:50:13;7.87;;;5.70;;
8423;SDS011;4249;49.072;9.770;2022-11-14T10:52:44;8.87;;;6.20;;
8423;SDS011;4249;49.072;9.770;2022-11-14T10:55:12;8.83;;;6.23;;
8423;SDS011;4249;49.072;9.770;2022-11-14T10:57:41;6.77;;;5.77;;
8423;SDS011;4249;49.072;9.770;2022-11-14T11:00:12;10.43;;;6.57;;
8423;SDS011;4249;49.072;9.770;2022-11-14T11:02:45;11.00;;;6.37;;
8423;SDS011;4249;49.072;9.770;2022-11-14T11:05:15;6.17;;;4.93;;
8423;SDS011;4249;49.072;9.770;2022-11-14T11:07:44;5.63;;;4.53;;
8423;SDS011;4249;49.072;9.770;2022-11-14T11:10:30;5.10;;;4.30;;
8423;SDS011;4249;49.072;9.770;2022-11-14T11:13:26;6.10;;;4.17;;
8423;SDS011;4249;49.072;9.770;2022-11-14T11:15:58;5.07;;;4.27;;
8423;SDS011;4249;49.072;9.770;2022-11-14T11:18:27;5.00;;;3.70;;
8423;SDS011;4249;49.072;9.770;2022-11-14T11:21:03;5.47;;;3.83;;
8423;SDS011;4249;49.072;9.770;2022-11-14T11:23:32;10.33;;;6.80;;
8423;SDS011;4249;49.072;9.770;2022-11-14T11:26:00;5.37;;;4.20;;
8423;SDS011;4249;49.072;9.770;2022-11-14T11:28:30;5.73;;;4.63;;
8423;SDS011;4249;49.072;9.770;2022-11-14T11:31:00;3.53;;;3.20;;
8423;SDS011;4249;49.072;9.770;2022-11-14T11:33:28;7.23;;;5.30;;
8423;SDS011;4249;49.072;9.770;2022-11-14T11:35:58;6.10;;;3.83;;
8423;SDS011;4249;49.072;9.770;2022-11-14T11:38:27;3.40;;;2.70;;
8423;SDS011;4249;49.072;9.770;2022-11-14T11:40:58;5.87;;;3.63;;
8423;SDS011;4249;49.072;9.770;2022-11-14T11:43:35;7.50;;;4.73;;
8423;SDS011;4249;49.072;9.770;2022-11-14T11:46:13;2.90;;;2.30;;
8423;SDS011;4249;49.072;9.770;2022-11-14T11:48:43;3.07;;;2.27;;
8423;SDS011;4249;49.072;9.770;2022-11-14T11:51:14;4.40;;;2.77;;
8423;SDS011;4249;49.072;9.770;2022-11-14T11:53:45;4.17;;;2.33;;
8423;SDS011;4249;49.072;9.770;2022-11-14T11:56:17;2.90;;;2.60;;
8423;SDS011;4249;49.072;9.770;2022-11-14T11:58:50;4.40;;;3.17;;
8423;SDS011;4249;49.072;9.770;2022-11-14T12:01:21;3.87;;;2.33;;
8423;SDS011;4249;49.072;9.770;2022-11-14T12:03:48;2.43;;;2.23;;
8423;SDS011;4249;49.072;9.770;2022-11-14T12:06:17;2.50;;;2.17;;
8423;SDS011;4249;49.072;9.770;2022-11-14T12:08:53;2.53;;;2.20;;
8423;SDS011;4249;49.072;9.770;2022-11-14T12:11:38;1.87;;;1.77;;
8423;SDS011;4249;49.072;9.770;2022-11-14T12:14:21;2.90;;;2.10;;
8423;SDS011;4249;49.072;9.770;2022-11-14T12:17:26;2.03;;;1.83;;
8423;SDS011;4249;49.072;9.770;2022-11-14T12:20:18;2.60;;;1.70;;
8423;SDS011;4249;49.072;9.770;2022-11-14T12:23:15;3.20;;;1.90;;
8423;SDS011;4249;49.072;9.770;2022-11-14T12:26:20;3.10;;;1.80;;
8423;SDS011;4249;49.072;9.770;2022-11-14T12:29:00;1.63;;;1.50;;
8423;SDS011;4249;49.072;9.770;2022-11-14T12:31:42;2.60;;;2.00;;
8423;SDS011;4249;49.072;9.770;2022-11-14T12:34:14;5.07;;;2.23;;
8423;SDS011;4249;49.072;9.770;2022-11-14T12:36:46;2.93;;;2.10;;
8423;SDS011;4249;49.072;9.770;2022-11-14T12:39:21;2.83;;;1.77;;
8423;SDS011;4249;49.072;9.770;2022-11-14T12:41:50;3.17;;;1.80;;
8423;SDS011;4249;49.072;9.770;2022-11-14T12:44:30;3.27;;;1.80;;
8423;SDS011;4249;49.072;9.770;2022-11-14T12:47:12;1.80;;;1.57;;
8423;SDS011;4249;49.072;9.770;2022-11-14T12:50:02;3.70;;;1.90;;
8423;SDS011;4249;49.072;9.770;2022-11-14T12:52:52;4.63;;;2.10;;
8423;SDS011;4249;49.072;9.770;2022-11-14T12:58:22;2.73;;;1.70;;
8423;SDS011;4249;49.072;9.770;2022-11-14T13:01:02;1.50;;;1.40;;
8423;SDS011;4249;49.072;9.770;2022-11-14T13:03:45;1.73;;;1.47;;
8423;SDS011;4249;49.072;9.770;2022-11-14T13:06:22;1.67;;;1.20;;
8423;SDS011;4249;49.072;9.770;2022-11-14T13:11:53;2.30;;;1.60;;
8423;SDS011;4249;49.072;9.770;2022-11-14T13:14:47;2.77;;;1.80;;
8423;SDS011;4249;49.072;9.770;2022-11-14T13:17:37;1.60;;;1.50;;
8423;SDS011;4249;49.072;9.770;2022-11-14T13:20:25;2.00;;;1.33;;
8423;SDS011;4249;49.072;9.770;2022-11-14T13:26:35;1.43;;;1.33;;
8423;SDS011;4249;49.072;9.770;2022-11-14T13:29:42;4.03;;;1.50;;
8423;SDS011;4249;49.072;9.770;2022-11-14T13:35:36;1.83;;;1.50;;
8423;SDS011;4249;49.072;9.770;2022-11-14T13:38:15;1.50;;;1.40;;
8423;SDS011;4249;49.072;9.770;2022-11-14T13:41:04;2.70;;;1.50;;
8423;SDS011;4249;49.072;9.770;2022-11-14T13:44:00;1.37;;;1.27;;
8423;SDS011;4249;49.072;9.770;2022-11-14T13:46:54;1.90;;;1.47;;
8423;SDS011;4249;49.072;9.770;2022-11-14T13:49:40;1.90;;;1.50;;
8423;SDS011;4249;49.072;9.770;2022-11-14T13:52:26;1.30;;;1.20;;
8423;SDS011;4249;49.072;9.770;2022-11-14T13:54:56;1.53;;;1.30;;
8423;SDS011;4249;49.072;9.770;2022-11-14T13:57:27;1.67;;;1.57;;
8423;SDS011;4249;49.072;9.770;2022-11-14T14:00:11;3.03;;;1.30;;
8423;SDS011;4249;49.072;9.770;2022-11-14T14:02:48;2.73;;;1.60;;
8423;SDS011;4249;49.072;9.770;2022-11-14T14:05:29;2.17;;;1.70;;
8423;SDS011;4249;49.072;9.770;2022-11-14T14:08:10;2.47;;;1.63;;
8423;SDS011;4249;49.072;9.770;2022-11-14T14:10:48;6.27;;;2.23;;
8423;SDS011;4249;49.072;9.770;2022-11-14T14:13:25;5.30;;;1.80;;
8423;SDS011;4249;49.072;9.770;2022-11-14T14:16:06;4.03;;;2.00;;
8423;SDS011;4249;49.072;9.770;2022-11-14T14:18:43;2.97;;;1.60;;
8423;SDS011;4249;49.072;9.770;2022-11-14T14:21:20;1.60;;;1.50;;
8423;SDS011;4249;49.072;9.770;2022-11-14T14:23:59;4.17;;;2.30;;
8423;SDS011;4249;49.072;9.770;2022-11-14T14:26:34;2.23;;;1.73;;
8423;SDS011;4249;49.072;9.770;2022-11-14T14:29:22;1.87;;;1.53;;
8423;SDS011;4249;49.072;9.770;2022-11-14T14:31:51;2.80;;;1.80;;
8423;SDS011;4249;49.072;9.770;2022-11-14T14:34:23;3.07;;;1.97;;
8423;SDS011;4249;49.072;9.770;2022-11-14T14:36:53;2.93;;;1.80;;
8423;SDS011;4249;49.072;9.770;2022-11-14T14:39:21;2.77;;;1.90;;
8423;SDS011;4249;49.072;9.770;2022-11-14T14:41:50;2.53;;;1.90;;
8423;SDS011;4249;49.072;9.770;2022-11-14T14:44:22;3.23;;;1.70;;
8423;SDS011;4249;49.072;9.770;2022-11-14T14:46:53;3.10;;;1.97;;
8423;SDS011;4249;49.072;9.770;2022-11-14T14:49:22;3.73;;;2.60;;
8423;SDS011;4249;49.072;9.770;2022-11-14T14:51:52;2.60;;;2.13;;
8423;SDS011;4249;49.072;9.770;2022-11-14T14:54:20;2.50;;;2.10;;
8423;SDS011;4249;49.072;9.770;2022-11-14T14:56:51;3.97;;;2.20;;
8423;SDS011;4249;49.072;9.770;2022-11-14T14:59:21;3.13;;;2.80;;
8423;SDS011;4249;49.072;9.770;2022-11-14T15:01:49;2.87;;;2.10;;
8423;SDS011;4249;49.072;9.770;2022-11-14T15:04:18;3.73;;;2.20;;
8423;SDS011;4249;49.072;9.770;2022-11-14T15:06:47;5.30;;;2.80;;
8423;SDS011;4249;49.072;9.770;2022-11-14T15:09:16;2.87;;;2.40;;
8423;SDS011;4249;49.072;9.770;2022-11-14T15:11:46;5.37;;;3.60;;
8423;SDS011;4249;49.072;9.770;2022-11-14T15:14:15;6.03;;;4.10;;
8423;SDS011;4249;49.072;9.770;2022-11-14T15:16:44;4.77;;;3.50;;
8423;SDS011;4249;49.072;9.770;2022-11-14T15:19:15;2.37;;;2.10;;
8423;SDS011;4249;49.072;9.770;2022-11-14T15:21:46;3.10;;;2.00;;
8423;SDS011;4249;49.072;9.770;2022-11-14T15:24:26;2.30;;;2.10;;
8423;SDS011;4249;49.072;9.770;2022-11-14T15:26:53;2.60;;;2.20;;
8423;SDS011;4249;49.072;9.770;2022-11-14T15:29:20;3.13;;;2.03;;
8423;SDS011;4249;49.072;9.770;2022-11-14T15:31:49;2.07;;;1.87;;
8423;SDS011;4249;49.072;9.770;2022-11-14T15:34:25;2.47;;;1.77;;
8423;SDS011;4249;49.072;9.770;2022-11-14T15:39:48;2.50;;;2.00;;
8423;SDS011;4249;49.072;9.770;2022-11-14T15:42:17;2.40;;;1.90;;
8423;SDS011;4249;49.072;9.770;2022-11-14T15:44:46;1.80;;;1.70;;
8423;SDS011;4249;49.072;9.770;2022-11-14T15:47:17;2.30;;;2.10;;
8423;SDS011;4249;49.072;9.770;2022-11-14T15:49:59;2.10;;;1.90;;
8423;SDS011;4249;49.072;9.770;2022-11-14T15:52:29;3.33;;;2.10;;
8423;SDS011;4249;49.072;9.770;2022-11-14T15:54:59;2.23;;;1.90;;
8423;SDS011;4249;49.072;9.770;2022-11-14T15:57:27;5.33;;;1.93;;
8423;SDS011;4249;49.072;9.770;2022-11-14T15:59:56;3.20;;;1.97;;
8423;SDS011;4249;49.072;9.770;2022-11-14T16:02:24;4.50;;;2.00;;
8423;SDS011;4249;49.072;9.770;2022-11-14T16:04:55;2.63;;;2.03;;
8423;SDS011;4249;49.072;9.770;2022-11-14T16:07:43;2.00;;;1.57;;
8423;SDS011;4249;49.072;9.770;2022-11-14T16:10:31;2.43;;;1.93;;
8423;SDS011;4249;49.072;9.770;2022-11-14T16:13:18;2.20;;;1.70;;
8423;SDS011;4249;49.072;9.770;2022-11-14T16:16:05;10.37;;;6.40;;
8423;SDS011;4249;49.072;9.770;2022-11-14T16:18:55;3.33;;;2.40;;
8423;SDS011;4249;49.072;9.770;2022-11-14T16:21:42;2.40;;;1.73;;
8423;SDS011;4249;49.072;9.770;2022-11-14T16:24:32;3.17;;;2.10;;
8423;SDS011;4249;49.072;9.770;2022-11-14T16:27:20;4.70;;;2.57;;
8423;SDS011;4249;49.072;9.770;2022-11-14T16:30:07;4.40;;;3.03;;